createdAt,value
2022-11-08T00:01:39.717Z,8.46
2022-11-08T00:04:09.518Z,8.40
2022-11-08T00:06:56.163Z,8.40
2022-11-08T00:09:42.804Z,8.40
2022-11-08T00:12:29.969Z,8.36
2022-11-08T00:15:00.070Z,8.12
2022-11-08T00:17:30.372Z,8.25
2022-11-08T00:19:59.637Z,8.23
2022-11-08T00:22:30.806Z,8.20
2022-11-08T00:25:00.285Z,8.19
2022-11-08T00:27:29.194Z,8.09
2022-11-08T00:29:59.371Z,8.10
2022-11-08T00:32:28.519Z,8.10
2022-11-08T00:34:56.958Z,8.06
2022-11-08T00:37:26.146Z,8.03
2022-11-08T00:39:54.527Z,8.01
2022-11-08T00:42:23.560Z,7.99
2022-11-08T00:44:51.963Z,7.98
2022-11-08T00:47:22.628Z,7.99
2022-11-08T00:49:51.019Z,7.93
2022-11-08T00:52:20.296Z,7.86
2022-11-08T00:54:48.653Z,7.93
2022-11-08T00:57:18.283Z,7.92
2022-11-08T00:59:46.622Z,7.86
2022-11-08T01:02:15.590Z,7.92
2022-11-08T01:04:45.929Z,7.93
2022-11-08T01:07:14.814Z,7.89
2022-11-08T01:09:43.150Z,7.78
2022-11-08T01:12:12.368Z,7.77
2022-11-08T01:14:40.825Z,7.72
2022-11-08T01:17:10.304Z,7.65
2022-11-08T01:19:38.669Z,7.62
2022-11-08T01:22:09.593Z,7.63
2022-11-08T01:24:38.584Z,7.69
2022-11-08T01:27:07.020Z,7.64
2022-11-08T01:29:36.484Z,7.56
2022-11-08T01:32:04.926Z,7.51
2022-11-08T01:34:34.325Z,7.55
2022-11-08T01:37:02.731Z,7.37
2022-11-08T01:39:33.164Z,7.59
2022-11-08T01:42:01.520Z,7.60
2022-11-08T01:44:30.871Z,7.59
2022-11-08T01:46:59.274Z,7.57
2022-11-08T01:49:35.304Z,7.57
2022-11-08T01:52:17.025Z,7.52
2022-11-08T01:54:56.240Z,7.51
2022-11-08T01:57:28.526Z,7.50
2022-11-08T02:00:02.309Z,7.44
2022-11-08T02:02:38.561Z,7.43
2022-11-08T02:05:25.247Z,7.42
2022-11-08T02:07:57.115Z,7.47
2022-11-08T02:10:33.962Z,7.45
2022-11-08T02:13:05.173Z,7.40
2022-11-08T02:15:35.951Z,7.38
2022-11-08T02:18:04.938Z,7.39
2022-11-08T02:20:33.963Z,7.32
2022-11-08T02:23:11.223Z,7.29
2022-11-08T02:25:41.013Z,7.27
2022-11-08T02:28:09.772Z,7.17
2022-11-08T02:30:39.579Z,7.15
2022-11-08T02:33:17.095Z,7.17
2022-11-08T02:35:47.540Z,7.23
2022-11-08T02:38:17.376Z,7.14
2022-11-08T02:40:48.917Z,7.17
2022-11-08T02:43:18.425Z,6.98
2022-11-08T02:45:47.730Z,6.88
2022-11-08T02:48:19.479Z,7.00
2022-11-08T02:50:48.419Z,7.06
2022-11-08T02:53:17.400Z,7.09
2022-11-08T02:55:46.608Z,7.16
2022-11-08T02:58:16.783Z,7.08
2022-11-08T03:00:46.853Z,7.08
2022-11-08T03:03:15.250Z,7.09
2022-11-08T03:05:44.750Z,6.98
2022-11-08T03:08:13.143Z,7.04
2022-11-08T03:10:42.142Z,6.99
2022-11-08T03:13:10.525Z,6.98
2022-11-08T03:15:40.824Z,6.94
2022-11-08T03:18:09.490Z,6.91
2022-11-08T03:20:37.840Z,6.93
2022-11-08T03:23:07.870Z,6.90
2022-11-08T03:25:36.285Z,6.83
2022-11-08T03:28:07.100Z,6.80
2022-11-08T03:30:36.376Z,6.74
2022-11-08T03:33:07.018Z,6.73
2022-11-08T03:35:35.421Z,6.77
2022-11-08T03:38:04.898Z,6.80
2022-11-08T03:40:33.326Z,6.81
2022-11-08T03:43:02.141Z,6.77
2022-11-08T03:45:31.082Z,6.74
2022-11-08T03:47:59.684Z,6.74
2022-11-08T03:50:30.098Z,6.73
2022-11-08T03:52:59.161Z,6.74
2022-11-08T03:55:29.462Z,6.72
2022-11-08T03:57:58.660Z,6.67
2022-11-08T04:00:29.601Z,6.60
2022-11-08T04:03:04.266Z,6.60
2022-11-08T04:05:34.096Z,6.54
2022-11-08T04:08:03.403Z,6.50
2022-11-08T04:10:31.764Z,6.46
2022-11-08T04:13:18.990Z,6.43
2022-11-08T04:15:49.112Z,6.44
2022-11-08T04:18:35.156Z,6.34
2022-11-08T04:21:20.683Z,6.35
2022-11-08T04:23:51.166Z,6.35
2022-11-08T04:26:22.594Z,6.35
2022-11-08T04:28:50.989Z,6.36
2022-11-08T04:31:20.999Z,6.33
2022-11-08T04:33:49.385Z,6.29
2022-11-08T04:36:19.640Z,6.28
2022-11-08T04:38:49.530Z,6.26
2022-11-08T04:41:19.857Z,6.23
2022-11-08T04:43:48.762Z,6.14
2022-11-08T04:46:19.277Z,6.14
2022-11-08T04:48:51.913Z,6.28
2022-11-08T04:51:23.050Z,6.65
2022-11-08T04:53:52.371Z,6.57
2022-11-08T04:56:22.654Z,6.48
2022-11-08T04:58:53.441Z,6.41
2022-11-08T05:01:24.813Z,6.39
2022-11-08T05:03:55.411Z,6.29
2022-11-08T05:06:27.313Z,6.23
2022-11-08T05:08:57.555Z,6.22
2022-11-08T05:11:28.187Z,6.19
2022-11-08T05:13:58.431Z,6.23
2022-11-08T05:16:28.487Z,6.23
2022-11-08T05:18:58.126Z,6.18
2022-11-08T05:21:46.494Z,6.12
2022-11-08T05:24:17.078Z,6.14
2022-11-08T05:26:49.297Z,6.13
2022-11-08T05:29:18.596Z,6.16
2022-11-08T05:31:46.976Z,6.14
2022-11-08T05:34:15.797Z,6.06
2022-11-08T05:36:45.518Z,6.02
2022-11-08T05:39:14.419Z,5.96
2022-11-08T05:41:43.455Z,5.89
2022-11-08T05:44:12.345Z,5.85
2022-11-08T05:46:40.750Z,5.89
2022-11-08T05:49:09.573Z,5.86
2022-11-08T05:51:37.998Z,5.84
2022-11-08T05:54:08.731Z,5.80
2022-11-08T05:56:37.125Z,5.73
2022-11-08T05:59:05.634Z,5.75
2022-11-08T06:01:34.176Z,5.70
2022-11-08T06:04:03.053Z,5.64
2022-11-08T06:06:32.183Z,5.72
2022-11-08T06:09:00.577Z,5.67
2022-11-08T06:11:30.390Z,5.68
2022-11-08T06:13:58.738Z,5.65
2022-11-08T06:16:27.265Z,5.64
2022-11-08T06:18:55.674Z,5.68
2022-11-08T06:21:26.704Z,5.66
2022-11-08T06:23:55.574Z,5.69
2022-11-08T06:26:25.326Z,5.64
2022-11-08T06:28:55.074Z,5.64
2022-11-08T06:31:24.672Z,5.63
2022-11-08T06:33:53.342Z,5.60
2022-11-08T06:36:21.798Z,5.55
2022-11-08T06:38:55.943Z,5.53
2022-11-08T06:41:24.532Z,5.56
2022-11-08T06:43:56.484Z,5.60
2022-11-08T06:46:25.035Z,5.53
2022-11-08T06:48:53.661Z,5.54
2022-11-08T06:51:22.604Z,5.56
2022-11-08T06:53:52.113Z,5.58
2022-11-08T06:56:20.581Z,5.63
2022-11-08T06:58:49.790Z,5.65
2022-11-08T07:01:19.888Z,5.69
2022-11-08T07:03:48.361Z,5.68
2022-11-08T07:06:17.726Z,5.68
2022-11-08T07:08:46.482Z,5.69
2022-11-08T07:11:15.905Z,5.73
2022-11-08T07:13:44.353Z,5.76
2022-11-08T07:16:13.809Z,5.81
2022-11-08T07:18:43.994Z,5.83
2022-11-08T07:21:12.387Z,5.84
2022-11-08T07:23:41.680Z,5.87
2022-11-08T07:26:11.165Z,5.89
2022-11-08T07:28:40.974Z,5.87
2022-11-08T07:31:10.623Z,5.85
2022-11-08T07:33:39.140Z,5.80
2022-11-08T07:36:09.930Z,5.92
2022-11-08T07:38:38.298Z,5.96
2022-11-08T07:41:07.785Z,5.97
2022-11-08T07:43:36.645Z,5.93
2022-11-08T07:46:14.526Z,5.96
2022-11-08T07:48:43.776Z,6.03
2022-11-08T07:51:13.467Z,6.12
2022-11-08T07:53:44.314Z,6.19
2022-11-08T07:56:12.711Z,6.35
2022-11-08T07:58:41.775Z,6.56
2022-11-08T08:01:10.162Z,6.79
2022-11-08T08:03:39.600Z,7.08
2022-11-08T08:06:08.194Z,7.34
2022-11-08T08:08:39.230Z,7.57
2022-11-08T08:11:08.217Z,7.83
2022-11-08T08:13:36.644Z,8.11
2022-11-08T08:16:06.533Z,8.34
2022-11-08T08:18:35.554Z,8.56
2022-11-08T08:21:04.423Z,8.80
2022-11-08T08:23:33.194Z,8.90
2022-11-08T08:26:04.175Z,8.90
2022-11-08T08:28:33.375Z,9.05
2022-11-08T08:31:01.826Z,9.25
2022-11-08T08:33:30.666Z,9.36
2022-11-08T08:36:01.542Z,9.59
2022-11-08T08:38:31.000Z,9.88
2022-11-08T08:41:00.892Z,10.04
2022-11-08T08:43:32.445Z,10.08
2022-11-08T08:46:02.097Z,10.19
2022-11-08T08:48:31.420Z,10.28
2022-11-08T08:51:00.422Z,10.49
2022-11-08T08:53:29.312Z,10.63
2022-11-08T08:55:58.178Z,10.85
2022-11-08T08:58:26.580Z,10.97
2022-11-08T09:03:50.569Z,11.07
2022-11-08T09:06:19.821Z,11.15
2022-11-08T09:08:50.258Z,11.15
2022-11-08T09:11:19.251Z,11.29
2022-11-08T09:13:48.048Z,11.55
2022-11-08T09:16:18.802Z,11.66
2022-11-08T09:18:47.249Z,11.82
2022-11-08T09:21:16.641Z,12.08
2022-11-08T09:23:45.029Z,12.29
2022-11-08T09:26:14.432Z,12.32
2022-11-08T09:28:43.166Z,12.24
2022-11-08T09:31:13.373Z,12.28
2022-11-08T09:33:44.591Z,12.18
2022-11-08T09:36:14.720Z,12.19
2022-11-08T09:38:44.080Z,12.14
2022-11-08T09:41:43.526Z,12.35
2022-11-08T09:44:26.934Z,12.49
2022-11-08T09:46:58.359Z,12.79
2022-11-08T09:49:34.993Z,13.10
2022-11-08T09:52:05.414Z,13.27
2022-11-08T09:54:39.511Z,13.48
2022-11-08T09:57:17.410Z,13.80
2022-11-08T09:59:50.160Z,14.10
2022-11-08T10:02:20.811Z,14.43
2022-11-08T10:04:56.043Z,14.33
2022-11-08T10:07:34.253Z,14.47
2022-11-08T10:10:19.896Z,14.71
2022-11-08T10:12:58.720Z,14.99
2022-11-08T10:15:36.732Z,15.17
2022-11-08T10:18:36.147Z,15.29
2022-11-08T10:21:12.973Z,15.38
2022-11-08T10:23:45.713Z,15.56
2022-11-08T10:26:20.551Z,15.76
2022-11-08T10:28:56.330Z,16.08
2022-11-08T10:31:24.716Z,16.40
2022-11-08T10:33:56.128Z,16.61
2022-11-08T10:36:31.551Z,16.92
2022-11-08T10:39:05.699Z,17.06
2022-11-08T10:41:41.714Z,16.83
2022-11-08T10:44:15.364Z,16.23
2022-11-08T10:46:46.410Z,15.97
2022-11-08T10:49:23.973Z,16.30
2022-11-08T10:51:56.601Z,16.47
2022-11-08T10:54:59.192Z,16.16
2022-11-08T10:57:38.734Z,15.89
2022-11-08T11:00:19.438Z,15.60
2022-11-08T11:02:51.844Z,15.44
2022-11-08T11:05:28.771Z,15.30
2022-11-08T11:08:14.657Z,15.52
2022-11-08T11:10:45.426Z,15.93
2022-11-08T11:13:16.262Z,15.92
2022-11-08T11:15:48.196Z,16.11
2022-11-08T11:18:24.781Z,16.00
2022-11-08T11:21:07.471Z,16.04
2022-11-08T11:23:41.222Z,16.15
2022-11-08T11:26:19.634Z,16.48
2022-11-08T11:29:18.039Z,17.20
2022-11-08T11:31:48.922Z,17.53
2022-11-08T11:34:44.171Z,17.92
2022-11-08T11:37:20.399Z,18.16
2022-11-08T11:40:00.170Z,18.27
2022-11-08T11:42:51.142Z,18.36
2022-11-08T11:45:22.747Z,18.53
2022-11-08T11:47:54.582Z,18.78
2022-11-08T11:50:32.339Z,18.77
2022-11-08T11:53:04.843Z,18.84
2022-11-08T11:56:00.828Z,18.84
2022-11-08T11:58:47.765Z,19.11
2022-11-08T12:01:21.847Z,19.15
2022-11-08T12:04:04.211Z,19.06
2022-11-08T12:06:43.630Z,19.27
2022-11-08T12:09:25.666Z,19.64
2022-11-08T12:12:06.449Z,19.39
2022-11-08T12:14:59.159Z,19.48
2022-11-08T12:17:55.671Z,19.83
2022-11-08T12:20:35.998Z,19.79
2022-11-08T12:23:27.955Z,19.74
2022-11-08T12:26:04.116Z,19.99
2022-11-08T12:28:50.931Z,20.14
2022-11-08T12:31:28.019Z,20.09
2022-11-08T12:34:15.167Z,20.19
2022-11-08T12:36:53.853Z,20.02
2022-11-08T12:39:33.843Z,19.91
2022-11-08T12:42:23.429Z,20.20
2022-11-08T12:45:09.326Z,20.42
2022-11-08T12:47:46.170Z,20.32
2022-11-08T12:50:25.217Z,20.63
2022-11-08T12:53:10.427Z,21.03
2022-11-08T12:55:42.754Z,21.09
2022-11-08T12:58:30.360Z,20.99
2022-11-08T13:01:07.410Z,21.12
2022-11-08T13:04:05.683Z,21.41
2022-11-08T13:06:43.020Z,21.53
2022-11-08T13:09:22.988Z,21.52
2022-11-08T13:12:01.899Z,21.62
2022-11-08T13:14:31.626Z,21.74
2022-11-08T13:17:23.490Z,21.79
2022-11-08T13:20:30.207Z,21.77
2022-11-08T13:23:01.844Z,21.64
2022-11-08T13:25:41.707Z,21.80
2022-11-08T13:28:45.778Z,21.93
2022-11-08T13:31:20.611Z,21.98
2022-11-08T13:34:04.884Z,22.08
2022-11-08T13:36:43.161Z,21.98
2022-11-08T13:39:28.169Z,21.98
2022-11-08T13:42:02.879Z,22.02
2022-11-08T13:45:00.342Z,22.18
2022-11-08T13:47:56.303Z,22.34
2022-11-08T13:50:47.314Z,22.36
2022-11-08T13:53:54.790Z,22.38
2022-11-08T13:56:50.446Z,22.36
2022-11-08T13:59:57.801Z,22.39
2022-11-08T14:02:37.979Z,22.45
2022-11-08T14:05:22.015Z,22.46
2022-11-08T14:08:06.581Z,22.50
2022-11-08T14:10:41.335Z,22.46
2022-11-08T14:13:21.812Z,22.55
2022-11-08T14:15:55.440Z,22.50
2022-11-08T14:18:27.451Z,22.55
2022-11-08T14:20:57.255Z,22.49
2022-11-08T14:23:30.045Z,22.46
2022-11-08T14:26:02.142Z,22.33
2022-11-08T14:28:34.703Z,22.22
2022-11-08T14:31:05.764Z,22.13
2022-11-08T14:33:42.017Z,21.98
2022-11-08T14:36:16.628Z,21.82
2022-11-08T14:38:48.509Z,21.66
2022-11-08T14:41:23.691Z,21.46
2022-11-08T14:43:56.777Z,21.25
2022-11-08T14:46:31.377Z,21.03
2022-11-08T14:49:10.455Z,20.74
2022-11-08T14:51:39.220Z,20.46
2022-11-08T14:54:17.487Z,20.11
2022-11-08T14:56:48.009Z,19.73
2022-11-08T14:59:18.420Z,19.40
2022-11-08T15:01:50.262Z,19.13
2022-11-08T15:04:21.835Z,18.90
2022-11-08T15:06:53.724Z,18.67
2022-11-08T15:09:27.318Z,18.43
2022-11-08T15:11:57.812Z,18.19
2022-11-08T15:14:32.089Z,18.02
2022-11-08T15:17:03.362Z,17.84
2022-11-08T15:19:37.294Z,17.73
2022-11-08T15:22:25.576Z,17.54
2022-11-08T15:25:01.788Z,17.30
2022-11-08T15:27:31.146Z,16.96
2022-11-08T15:30:03.396Z,16.71
2022-11-08T15:32:38.106Z,16.52
2022-11-08T15:35:08.739Z,16.34
2022-11-08T15:37:39.963Z,16.14
2022-11-08T15:40:19.273Z,15.88
2022-11-08T15:42:49.615Z,15.64
2022-11-08T15:45:26.517Z,15.38
2022-11-08T15:48:01.577Z,15.22
2022-11-08T15:50:32.290Z,15.11
2022-11-08T15:53:03.767Z,14.88
2022-11-08T15:55:37.364Z,14.82
2022-11-08T15:58:12.154Z,14.73
2022-11-08T16:00:46.801Z,14.76
2022-11-08T16:03:16.687Z,14.70
2022-11-08T16:05:45.578Z,14.62
2022-11-08T16:08:19.739Z,14.52
2022-11-08T16:10:52.180Z,14.47
2022-11-08T16:13:23.065Z,14.36
2022-11-08T16:15:54.051Z,14.20
2022-11-08T16:18:23.674Z,14.18
2022-11-08T16:20:52.942Z,14.12
2022-11-08T16:23:21.478Z,14.05
2022-11-08T16:25:53.166Z,14.02
2022-11-08T16:28:28.440Z,13.95
2022-11-08T16:30:58.291Z,13.92
2022-11-08T16:33:30.854Z,13.84
2022-11-08T16:36:01.755Z,13.88
2022-11-08T16:38:35.508Z,13.85
2022-11-08T16:41:05.390Z,13.78
2022-11-08T16:43:33.813Z,13.68
2022-11-08T16:46:07.424Z,13.52
2022-11-08T16:48:38.661Z,13.45
2022-11-08T16:51:15.342Z,13.35
2022-11-08T16:53:43.749Z,13.36
2022-11-08T16:56:13.358Z,13.38
2022-11-08T16:58:42.619Z,13.38
2022-11-08T17:01:15.879Z,13.36
2022-11-08T17:03:44.902Z,13.33
2022-11-08T17:06:18.507Z,13.31
2022-11-08T17:08:47.522Z,13.31
2022-11-08T17:11:18.199Z,13.33
2022-11-08T17:13:48.274Z,13.34
2022-11-08T17:16:18.775Z,13.27
2022-11-08T17:18:52.484Z,13.34
2022-11-08T17:21:43.695Z,13.34
2022-11-08T17:24:13.579Z,13.36
2022-11-08T17:26:44.215Z,13.36
2022-11-08T17:29:12.633Z,13.24
2022-11-08T17:31:42.459Z,13.20
2022-11-08T17:34:12.124Z,13.17
2022-11-08T17:36:40.528Z,13.13
2022-11-08T17:39:09.578Z,13.16
2022-11-08T17:41:38.036Z,13.07
2022-11-08T17:44:06.809Z,12.92
2022-11-08T17:46:35.162Z,12.94
2022-11-08T17:49:05.680Z,12.94
2022-11-08T17:51:34.084Z,12.90
2022-11-08T17:54:02.723Z,12.85
2022-11-08T17:56:31.419Z,12.73
2022-11-08T17:58:59.843Z,12.66
2022-11-08T18:01:28.337Z,12.64
2022-11-08T18:03:56.760Z,12.64
2022-11-08T18:06:27.508Z,12.61
2022-11-08T18:08:57.132Z,12.57
2022-11-08T18:11:26.546Z,12.61
2022-11-08T18:13:54.915Z,12.58
2022-11-08T18:16:23.741Z,12.52
2022-11-08T18:18:52.851Z,12.54
2022-11-08T18:21:21.712Z,12.51
2022-11-08T18:23:51.640Z,12.49
2022-11-08T18:26:20.250Z,12.50
2022-11-08T18:28:48.637Z,12.45
2022-11-08T18:31:19.469Z,12.39
2022-11-08T18:33:48.903Z,12.36
2022-11-08T18:36:20.199Z,12.28
2022-11-08T18:38:49.462Z,12.18
2022-11-08T18:41:22.448Z,12.19
2022-11-08T18:43:50.833Z,12.21
2022-11-08T18:46:22.302Z,12.24
2022-11-08T18:48:51.400Z,12.20
2022-11-08T18:51:21.741Z,12.07
2022-11-08T18:53:52.276Z,11.97
2022-11-08T18:56:22.563Z,12.06
2022-11-08T18:58:51.139Z,11.98
2022-11-08T19:01:20.291Z,11.98
2022-11-08T19:03:48.812Z,11.99
2022-11-08T19:06:17.669Z,12.03
2022-11-08T19:08:46.517Z,12.07
2022-11-08T19:11:20.586Z,12.04
2022-11-08T19:13:50.571Z,11.92
2022-11-08T19:16:20.803Z,11.86
2022-11-08T19:18:50.208Z,11.78
2022-11-08T19:21:21.225Z,11.72
2022-11-08T19:23:50.708Z,11.85
2022-11-08T19:26:21.957Z,11.88
2022-11-08T19:28:54.523Z,11.86
2022-11-08T19:31:25.157Z,11.87
2022-11-08T19:33:55.039Z,11.88
2022-11-08T19:36:26.049Z,11.88
2022-11-08T19:38:55.933Z,11.83
2022-11-08T19:41:26.220Z,11.78
2022-11-08T19:43:56.140Z,11.82
2022-11-08T19:46:26.877Z,11.77
2022-11-08T19:48:55.637Z,11.74
2022-11-08T19:51:26.600Z,11.60
2022-11-08T19:53:55.787Z,11.51
2022-11-08T19:56:43.332Z,11.56
2022-11-08T19:59:15.437Z,11.51
2022-11-08T20:01:44.952Z,11.50
2022-11-08T20:04:14.392Z,11.43
2022-11-08T20:06:43.166Z,11.41
2022-11-08T20:09:12.653Z,11.46
2022-11-08T20:11:42.746Z,11.49
2022-11-08T20:14:13.314Z,11.33
2022-11-08T20:16:49.299Z,11.26
2022-11-08T20:19:21.362Z,11.28
2022-11-08T20:21:49.929Z,11.31
2022-11-08T20:24:18.887Z,11.29
2022-11-08T20:26:47.728Z,11.31
2022-11-08T20:29:16.210Z,11.26
2022-11-08T20:31:46.317Z,11.20
2022-11-08T20:34:14.673Z,11.18
2022-11-08T20:36:44.447Z,11.17
2022-11-08T20:39:13.937Z,11.18
2022-11-08T20:41:43.022Z,11.21
2022-11-08T20:44:11.665Z,11.19
2022-11-08T20:46:41.045Z,11.09
2022-11-08T20:49:10.899Z,11.07
2022-11-08T20:51:39.462Z,11.07
2022-11-08T20:54:07.899Z,11.03
2022-11-08T20:56:36.461Z,11.00
2022-11-08T20:59:05.313Z,10.95
2022-11-08T21:01:34.588Z,10.90
2022-11-08T21:04:03.097Z,10.85
2022-11-08T21:06:36.415Z,10.90
2022-11-08T21:11:55.555Z,10.97
2022-11-08T21:14:24.582Z,10.85
2022-11-08T21:17:22.985Z,10.85
2022-11-08T21:19:42.666Z,10.80
2022-11-08T21:22:18.682Z,10.78
2022-11-08T21:24:48.193Z,10.81
2022-11-08T21:27:17.266Z,10.80
2022-11-08T21:29:46.361Z,10.78
2022-11-08T21:32:14.812Z,10.74
2022-11-08T21:34:46.386Z,10.47
2022-11-08T21:37:16.587Z,10.33
2022-11-08T21:39:45.221Z,10.23
2022-11-08T21:42:13.981Z,10.19
2022-11-08T21:44:43.169Z,10.28
2022-11-08T21:47:12.061Z,10.22
2022-11-08T21:49:40.921Z,10.10
2022-11-08T21:52:09.712Z,10.01
2022-11-08T21:54:40.583Z,10.03
2022-11-08T21:57:08.970Z,10.13
2022-11-08T21:59:37.965Z,10.16
2022-11-08T22:02:06.722Z,10.08
2022-11-08T22:04:35.619Z,10.10
2022-11-08T22:07:04.198Z,10.10
2022-11-08T22:09:33.042Z,10.11
2022-11-08T22:12:02.723Z,10.13
2022-11-08T22:14:31.565Z,10.15
2022-11-08T22:16:59.951Z,10.15
2022-11-08T22:19:28.878Z,10.16
2022-11-08T22:21:57.314Z,10.16
2022-11-08T22:24:26.348Z,10.13
2022-11-08T22:26:54.851Z,10.06
2022-11-08T22:29:25.269Z,9.97
2022-11-08T22:31:54.858Z,9.88
2022-11-08T22:34:23.970Z,9.60
2022-11-08T22:36:52.377Z,9.61
2022-11-08T22:39:23.325Z,9.57
2022-11-08T22:41:53.288Z,9.63
2022-11-08T22:44:22.234Z,9.74
2022-11-08T22:46:52.017Z,9.72
2022-11-08T22:49:20.862Z,9.55
2022-11-08T22:51:49.185Z,9.46
2022-11-08T22:54:18.239Z,9.51
2022-11-08T22:56:46.582Z,9.43
2022-11-08T22:59:15.222Z,9.33
2022-11-08T23:01:43.830Z,9.36
2022-11-08T23:04:13.679Z,9.38
2022-11-08T23:06:42.851Z,9.45
2022-11-08T23:09:11.406Z,9.42
2022-11-08T23:11:57.396Z,9.36
2022-11-08T23:14:43.904Z,9.39
2022-11-08T23:17:12.271Z,9.39
2022-11-08T23:20:00.242Z,9.43
2022-11-08T23:22:46.188Z,9.40
2022-11-08T23:25:15.055Z,9.29
2022-11-08T23:28:01.021Z,9.28
2022-11-08T23:30:47.706Z,9.24
2022-11-08T23:33:16.103Z,9.19
2022-11-08T23:36:00.373Z,9.19
2022-11-08T23:38:28.857Z,9.12
2022-11-08T23:41:17.882Z,9.03
2022-11-08T23:44:03.701Z,8.91
2022-11-08T23:46:32.802Z,8.85
2022-11-08T23:49:02.198Z,8.93
2022-11-08T23:51:33.152Z,8.92
2022-11-08T23:54:01.464Z,8.91
2022-11-08T23:56:30.275Z,8.99
2022-11-08T23:59:00.889Z,9.02
